createdAt,value
2022-09-10T00:01:31.552Z,95361.56
2022-09-10T00:04:02.743Z,95365.63
2022-09-10T00:06:35.380Z,95370.09
2022-09-10T00:09:03.725Z,95373.47
2022-09-10T00:11:32.446Z,95291.78
2022-09-10T00:14:02.346Z,95360.66
2022-09-10T00:16:32.331Z,95368.06
2022-09-10T00:19:03.192Z,95369.19
2022-09-10T00:21:31.560Z,95356.72
2022-09-10T00:24:00.116Z,95368.75
2022-09-10T00:26:30.341Z,95367.84
2022-09-10T00:29:00.434Z,95361.44
2022-09-10T00:31:30.147Z,95361.22
2022-09-10T00:33:59.728Z,95367.84
2022-09-10T00:36:33.018Z,95363.34
2022-09-10T00:39:03.658Z,95368.31
2022-09-10T00:41:32.617Z,95343.69
2022-09-10T00:44:02.487Z,95370.31
2022-09-10T00:46:36.791Z,95376.97
2022-09-10T00:49:15.379Z,95372.34
2022-09-10T00:51:47.081Z,95369.22
2022-09-10T00:54:17.880Z,95347.19
2022-09-10T00:56:46.852Z,95384.50
2022-09-10T00:59:18.953Z,95384.34
2022-09-10T01:01:49.368Z,95372.59
2022-09-10T01:04:17.743Z,95377.50
2022-09-10T01:06:47.776Z,95370.22
2022-09-10T01:09:16.339Z,95372.09
2022-09-10T01:11:59.014Z,95374.84
2022-09-10T01:14:56.080Z,95374.44
2022-09-10T01:17:32.815Z,95384.78
2022-09-10T01:20:33.666Z,95380.63
2022-09-10T01:23:26.347Z,95372.78
2022-09-10T01:26:05.069Z,95369.63
2022-09-10T01:28:41.118Z,95291.72
2022-09-10T01:31:13.003Z,95370.78
2022-09-10T01:33:48.448Z,95370.06
2022-09-10T01:36:22.223Z,95367.38
2022-09-10T01:38:51.787Z,95343.69
2022-09-10T01:41:24.180Z,95353.59
2022-09-10T01:43:53.959Z,95354.69
2022-09-10T01:46:31.128Z,95351.56
2022-09-10T01:49:18.938Z,95346.50
2022-09-10T01:52:04.568Z,95329.84
2022-09-10T01:54:45.913Z,95341.44
2022-09-10T01:57:24.548Z,95334.56
2022-09-10T02:00:02.812Z,95326.50
2022-09-10T02:02:37.236Z,95334.50
2022-09-10T02:05:07.634Z,95322.03
2022-09-10T02:07:37.939Z,95316.84
2022-09-10T02:10:09.524Z,95306.28
2022-09-10T02:12:40.150Z,95337.81
2022-09-10T02:15:12.010Z,95341.06
2022-09-10T02:17:41.536Z,95343.66
2022-09-10T02:20:14.864Z,95346.25
2022-09-10T02:22:49.992Z,95159.59
2022-09-10T02:25:18.550Z,95351.84
2022-09-10T02:27:47.016Z,95351.56
2022-09-10T02:30:17.089Z,95364.69
2022-09-10T02:32:45.406Z,95358.88
2022-09-10T02:35:15.673Z,95369.78
2022-09-10T02:37:44.344Z,95369.72
2022-09-10T02:40:13.989Z,95375.19
2022-09-10T02:42:46.881Z,95370.09
2022-09-10T02:45:16.945Z,95386.69
2022-09-10T02:47:45.177Z,95364.97
2022-09-10T02:50:13.511Z,95363.22
2022-09-10T02:52:41.820Z,95365.34
2022-09-10T02:55:10.494Z,95357.63
2022-09-10T02:57:39.625Z,95355.84
2022-09-10T03:00:09.989Z,95359.13
2022-09-10T03:02:40.484Z,95358.53
2022-09-10T03:05:09.443Z,95350.94
2022-09-10T03:07:38.796Z,95363.59
2022-09-10T03:10:07.611Z,95367.91
2022-09-10T03:12:36.449Z,95360.88
2022-09-10T03:15:05.071Z,95356.69
2022-09-10T03:17:33.477Z,95350.94
2022-09-10T03:20:03.979Z,95353.88
2022-09-10T03:22:32.228Z,95340.28
2022-09-10T03:25:00.658Z,95195.66
2022-09-10T03:27:28.879Z,95334.13
2022-09-10T03:29:57.277Z,95339.59
2022-09-10T03:32:25.565Z,95343.53
2022-09-10T03:34:53.924Z,95340.47
2022-09-10T03:37:24.248Z,95276.88
2022-09-10T03:39:52.633Z,95329.56
2022-09-10T03:42:21.110Z,95331.50
2022-09-10T03:44:49.448Z,95337.13
2022-09-10T03:47:18.485Z,95345.44
2022-09-10T03:49:46.708Z,95337.72
2022-09-10T03:52:15.064Z,95333.34
2022-09-10T03:54:45.674Z,95333.84
2022-09-10T03:57:14.073Z,95330.97
2022-09-10T03:59:42.370Z,95334.28
2022-09-10T04:02:10.625Z,95333.09
2022-09-10T04:04:38.940Z,95334.00
2022-09-10T04:07:08.201Z,95335.97
2022-09-10T04:09:36.459Z,95336.16
2022-09-10T04:12:06.634Z,95342.34
2022-09-10T04:14:35.237Z,95347.56
2022-09-10T04:17:03.543Z,95341.56
2022-09-10T04:19:31.818Z,95337.78
2022-09-10T04:22:00.096Z,95339.16
2022-09-10T04:24:28.371Z,95350.97
2022-09-10T04:26:57.826Z,95343.72
2022-09-10T04:29:27.524Z,95344.28
2022-09-10T04:31:56.495Z,95346.34
2022-09-10T04:34:24.757Z,95342.66
2022-09-10T04:36:53.766Z,95336.03
2022-09-10T04:39:22.065Z,95341.22
2022-09-10T04:41:50.304Z,95333.16
2022-09-10T04:44:20.243Z,95331.94
2022-09-10T04:46:50.036Z,95321.22
2022-09-10T04:49:18.342Z,95320.19
2022-09-10T04:51:47.024Z,95324.97
2022-09-10T04:54:15.676Z,95335.50
2022-09-10T04:56:44.843Z,95326.75
2022-09-10T04:59:13.168Z,95330.72
2022-09-10T05:01:41.474Z,95334.78
2022-09-10T05:04:11.111Z,95327.81
2022-09-10T05:06:39.431Z,95333.53
2022-09-10T05:09:07.759Z,95339.75
2022-09-10T05:11:36.856Z,95344.06
2022-09-10T05:14:05.277Z,95328.63
2022-09-10T05:16:33.696Z,95341.13
2022-09-10T05:19:02.073Z,95338.75
2022-09-10T05:21:32.252Z,95331.44
2022-09-10T05:24:00.931Z,95338.75
2022-09-10T05:26:32.264Z,95333.78
2022-09-10T05:29:00.772Z,95331.78
2022-09-10T05:31:29.435Z,95323.56
2022-09-10T05:33:59.593Z,95326.03
2022-09-10T05:36:27.957Z,95332.91
2022-09-10T05:39:01.294Z,95324.38
2022-09-10T05:41:31.233Z,95298.09
2022-09-10T05:43:59.497Z,95318.09
2022-09-10T05:46:29.838Z,95264.59
2022-09-10T05:48:58.465Z,95322.28
2022-09-10T05:51:30.001Z,95327.75
2022-09-10T05:54:00.359Z,95316.19
2022-09-10T05:56:28.572Z,95319.97
2022-09-10T05:58:56.795Z,95308.91
2022-09-10T06:01:25.090Z,95321.53
2022-09-10T06:03:53.396Z,95261.34
2022-09-10T06:06:21.914Z,95263.53
2022-09-10T06:08:53.477Z,95306.34
2022-09-10T06:11:23.416Z,95305.84
2022-09-10T06:13:52.334Z,95256.03
2022-09-10T06:16:20.643Z,95271.72
2022-09-10T06:18:48.982Z,95300.72
2022-09-10T06:21:18.950Z,95296.75
2022-09-10T06:23:47.542Z,95282.91
2022-09-10T06:26:18.652Z,95292.84
2022-09-10T06:28:48.760Z,95285.25
2022-09-10T06:31:19.786Z,95289.44
2022-09-10T06:33:49.100Z,95291.13
2022-09-10T06:36:17.453Z,95281.56
2022-09-10T06:38:46.233Z,95285.28
2022-09-10T06:41:16.223Z,95218.84
2022-09-10T06:43:45.079Z,95294.44
2022-09-10T06:46:44.166Z,95267.44
2022-09-10T06:49:06.233Z,95287.16
2022-09-10T06:51:34.579Z,95261.56
2022-09-10T06:54:03.143Z,95272.09
2022-09-10T06:56:31.489Z,95270.63
2022-09-10T06:59:02.340Z,95263.88
2022-09-10T07:01:33.140Z,95259.69
2022-09-10T07:04:02.855Z,95263.53
2022-09-10T07:06:34.875Z,95276.00
2022-09-10T07:09:03.664Z,95284.25
2022-09-10T07:11:32.295Z,95291.66
2022-09-10T07:14:01.580Z,95292.81
2022-09-10T07:16:31.763Z,95297.28
2022-09-10T07:19:01.404Z,95305.47
2022-09-10T07:21:30.380Z,95306.84
2022-09-10T07:24:01.397Z,95325.84
2022-09-10T07:26:30.299Z,95345.78
2022-09-10T07:28:59.689Z,95337.34
2022-09-10T07:31:30.057Z,95332.06
2022-09-10T07:34:00.779Z,95332.28
2022-09-10T07:36:30.108Z,95338.41
2022-09-10T07:39:01.880Z,95326.59
2022-09-10T07:41:31.984Z,95339.63
2022-09-10T07:44:00.273Z,95334.56
2022-09-10T07:46:28.584Z,95345.34
2022-09-10T07:48:58.669Z,95296.22
2022-09-10T07:51:30.367Z,95280.69
2022-09-10T07:54:00.467Z,95331.91
2022-09-10T07:56:32.009Z,95328.38
2022-09-10T07:59:02.810Z,95322.13
2022-09-10T08:01:31.933Z,95315.38
2022-09-10T08:04:00.551Z,95286.09
2022-09-10T08:06:32.308Z,95310.66
2022-09-10T08:09:01.344Z,95307.50
2022-09-10T08:11:29.680Z,95298.44
2022-09-10T08:13:58.066Z,95302.72
2022-09-10T08:16:27.057Z,95305.53
2022-09-10T08:18:57.321Z,95297.78
2022-09-10T08:21:26.126Z,95301.28
2022-09-10T08:23:56.375Z,95303.19
2022-09-10T08:26:25.924Z,95297.31
2022-09-10T08:28:55.963Z,95292.81
2022-09-10T08:31:26.463Z,95282.31
2022-09-10T08:33:56.933Z,95289.47
2022-09-10T08:36:25.798Z,95285.75
2022-09-10T08:39:00.694Z,95278.84
2022-09-10T08:41:39.272Z,95283.19
2022-09-10T08:44:16.277Z,95282.94
2022-09-10T08:46:49.361Z,95266.44
2022-09-10T08:49:27.521Z,95264.19
2022-09-10T08:52:02.196Z,95251.16
2022-09-10T08:54:39.240Z,95254.13
2022-09-10T08:57:15.639Z,95248.06
2022-09-10T08:59:46.610Z,95247.72
2022-09-10T09:02:44.674Z,95245.94
2022-09-10T09:05:15.964Z,95241.03
2022-09-10T09:07:44.553Z,95237.69
2022-09-10T09:10:40.172Z,95232.50
2022-09-10T09:13:43.257Z,95232.47
2022-09-10T09:16:25.143Z,95225.66
2022-09-10T09:19:06.360Z,95219.44
2022-09-10T09:21:44.721Z,95218.13
2022-09-10T09:24:24.069Z,95212.97
2022-09-10T09:26:56.947Z,95205.47
2022-09-10T09:29:31.019Z,95204.03
2022-09-10T09:32:00.979Z,95201.75
2022-09-10T09:34:35.144Z,95168.38
2022-09-10T09:37:05.909Z,95193.31
2022-09-10T09:39:40.224Z,95185.16
2022-09-10T09:42:20.455Z,95181.75
2022-09-10T09:44:56.881Z,95181.78
2022-09-10T09:47:25.474Z,95168.06
2022-09-10T09:49:54.492Z,95167.22
2022-09-10T09:52:24.908Z,95165.78
2022-09-10T09:55:13.872Z,95145.44
2022-09-10T09:57:44.882Z,95145.59
2022-09-10T10:00:36.608Z,95152.50
2022-09-10T10:03:14.263Z,95140.16
2022-09-10T10:05:42.866Z,95134.38
2022-09-10T10:08:30.228Z,95129.84
2022-09-10T10:10:58.865Z,95128.03
2022-09-10T10:13:37.388Z,95069.06
2022-09-10T10:16:17.458Z,95116.16
2022-09-10T10:18:46.725Z,95062.72
2022-09-10T10:21:18.279Z,95111.84
2022-09-10T10:23:47.015Z,95102.84
2022-09-10T10:26:34.131Z,95090.94
2022-09-10T10:29:07.005Z,95094.38
2022-09-10T10:31:40.512Z,95099.28
2022-09-10T10:34:30.099Z,95091.66
2022-09-10T10:37:08.923Z,95089.16
2022-09-10T10:39:56.073Z,95084.00
2022-09-10T10:42:29.153Z,95078.16
2022-09-10T10:45:12.844Z,95072.31
2022-09-10T10:47:49.840Z,95076.72
2022-09-10T10:50:32.638Z,95076.28
2022-09-10T10:53:22.899Z,95056.50
2022-09-10T10:55:58.631Z,95059.13
2022-09-10T10:58:54.275Z,95056.84
2022-09-10T11:01:26.169Z,95067.97
2022-09-10T11:04:03.159Z,95045.66
2022-09-10T11:06:39.042Z,95051.88
2022-09-10T11:09:13.716Z,95048.06
2022-09-10T11:11:53.510Z,95036.66
2022-09-10T11:14:28.387Z,95037.56
2022-09-10T11:17:02.677Z,95033.72
2022-09-10T11:19:38.457Z,95033.69
2022-09-10T11:22:14.789Z,95025.25
2022-09-10T11:24:50.336Z,95021.19
2022-09-10T11:27:23.839Z,95037.69
2022-09-10T11:29:58.762Z,95030.88
2022-09-10T11:32:34.823Z,95020.28
2022-09-10T11:35:12.636Z,94999.63
2022-09-10T11:37:51.150Z,94998.59
2022-09-10T11:40:26.253Z,95005.28
2022-09-10T11:42:57.993Z,94990.34
2022-09-10T11:45:36.385Z,94983.97
2022-09-10T11:48:17.486Z,94978.28
2022-09-10T11:50:52.033Z,94977.75
2022-09-10T11:53:23.363Z,94972.41
2022-09-10T11:56:16.801Z,94964.28
2022-09-10T11:58:55.663Z,94956.63
2022-09-10T12:01:35.577Z,94937.22
2022-09-10T12:04:26.128Z,94947.38
2022-09-10T12:07:05.884Z,94955.28
2022-09-10T12:09:42.358Z,94944.66
2022-09-10T12:12:19.419Z,94942.53
2022-09-10T12:14:47.816Z,94941.09
2022-09-10T12:17:18.912Z,94944.00
2022-09-10T12:19:52.734Z,94957.88
2022-09-10T12:22:25.804Z,94958.59
2022-09-10T12:24:56.709Z,94960.13
2022-09-10T12:27:45.700Z,94919.28
2022-09-10T12:31:00.202Z,94958.47
2022-09-10T12:34:07.937Z,94960.78
2022-09-10T12:37:19.985Z,94959.91
2022-09-10T12:39:50.600Z,94970.38
2022-09-10T12:42:34.701Z,94957.34
2022-09-10T12:45:02.998Z,94943.56
2022-09-10T12:47:50.503Z,94928.19
2022-09-10T12:50:30.391Z,94903.66
2022-09-10T12:53:26.653Z,94920.97
2022-09-10T12:56:03.460Z,94921.84
2022-09-10T12:58:47.563Z,94919.19
2022-09-10T13:01:25.794Z,94907.69
2022-09-10T13:03:57.975Z,94930.03
2022-09-10T13:06:38.374Z,94921.19
2022-09-10T13:09:20.139Z,94906.47
2022-09-10T13:11:52.707Z,94908.13
2022-09-10T13:14:26.054Z,94915.72
2022-09-10T13:16:55.544Z,94906.59
2022-09-10T13:19:50.195Z,94894.75
2022-09-10T13:22:57.379Z,94897.06
2022-09-10T13:25:32.770Z,94900.38
2022-09-10T13:28:02.740Z,94900.28
2022-09-10T13:30:32.219Z,94886.72
2022-09-10T13:33:02.333Z,94879.59
2022-09-10T13:35:56.483Z,94883.56
2022-09-10T13:39:08.704Z,94876.16
2022-09-10T13:42:08.223Z,94879.53
2022-09-10T13:45:01.190Z,94881.47
2022-09-10T13:47:36.869Z,94884.06
2022-09-10T13:50:14.373Z,94865.50
2022-09-10T13:52:46.431Z,94875.47
2022-09-10T13:55:23.470Z,94860.78
2022-09-10T13:57:55.986Z,94855.22
2022-09-10T14:00:28.211Z,94863.69
2022-09-10T14:02:58.730Z,94855.00
2022-09-10T14:05:34.007Z,94867.16
2022-09-10T14:08:07.607Z,94862.81
2022-09-10T14:10:49.604Z,94856.84
2022-09-10T14:13:23.733Z,94873.59
2022-09-10T14:15:55.200Z,94843.50
2022-09-10T14:18:29.151Z,94841.19
2022-09-10T14:20:57.718Z,94851.19
2022-09-10T14:23:26.236Z,94837.09
2022-09-10T14:26:11.350Z,94835.88
2022-09-10T14:28:50.886Z,94827.69
2022-09-10T14:31:39.178Z,94831.38
2022-09-10T14:34:32.164Z,94764.72
2022-09-10T14:37:01.842Z,94826.41
2022-09-10T14:39:30.407Z,94823.97
2022-09-10T14:42:23.586Z,94827.38
2022-09-10T14:44:51.908Z,94825.25
2022-09-10T14:47:30.556Z,94821.09
2022-09-10T14:50:27.736Z,94817.41
2022-09-10T14:52:56.265Z,94814.69
2022-09-10T14:55:26.094Z,94824.66
2022-09-10T14:57:55.601Z,94785.91
2022-09-10T15:00:26.097Z,94810.47
2022-09-10T15:02:57.469Z,94809.97
2022-09-10T15:05:26.023Z,94836.56
2022-09-10T15:07:54.278Z,94840.59
2022-09-10T15:10:22.749Z,94830.88
2022-09-10T15:12:53.260Z,94827.88
2022-09-10T15:15:21.813Z,94834.41
2022-09-10T15:17:50.373Z,94834.38
2022-09-10T15:20:22.678Z,94834.84
2022-09-10T15:22:53.063Z,94837.28
2022-09-10T15:25:34.897Z,94826.81
2022-09-10T15:28:04.481Z,94830.94
2022-09-10T15:30:32.728Z,94836.19
2022-09-10T15:33:01.200Z,94841.28
2022-09-10T15:35:31.170Z,94834.69
2022-09-10T15:38:01.813Z,94646.50
2022-09-10T15:40:30.171Z,94834.09
2022-09-10T15:42:58.812Z,94844.75
2022-09-10T15:45:27.308Z,94843.50
2022-09-10T15:47:55.685Z,94836.56
2022-09-10T15:50:23.993Z,94840.78
2022-09-10T15:52:53.679Z,94814.44
2022-09-10T15:55:22.019Z,94824.25
2022-09-10T15:57:50.976Z,94822.31
2022-09-10T16:00:20.529Z,94791.59
2022-09-10T16:02:53.151Z,94835.94
2022-09-10T16:05:22.411Z,94839.06
2022-09-10T16:07:50.744Z,94839.53
2022-09-10T16:10:20.534Z,94851.63
2022-09-10T16:12:48.787Z,94838.41
2022-09-10T16:15:17.425Z,94824.41
2022-09-10T16:17:45.893Z,94837.63
2022-09-10T16:20:14.117Z,94848.09
2022-09-10T16:22:42.443Z,94850.88
2022-09-10T16:25:12.196Z,94855.13
2022-09-10T16:27:43.403Z,94853.19
2022-09-10T16:30:13.898Z,94848.91
2022-09-10T16:32:42.209Z,94852.81
2022-09-10T16:35:10.827Z,94832.56
2022-09-10T16:37:39.138Z,94839.59
2022-09-10T16:40:09.385Z,94842.69
2022-09-10T16:42:37.765Z,94851.63
2022-09-10T16:45:08.634Z,94777.34
2022-09-10T16:47:37.303Z,94850.84
2022-09-10T16:50:06.967Z,94855.13
2022-09-10T16:52:35.911Z,94859.41
2022-09-10T16:55:05.146Z,94866.41
2022-09-10T16:57:33.580Z,94860.97
2022-09-10T17:00:01.842Z,94864.47
2022-09-10T17:02:32.098Z,94840.69
2022-09-10T17:05:00.677Z,94856.69
2022-09-10T17:07:29.329Z,94863.31
2022-09-10T17:10:00.917Z,94864.88
2022-09-10T17:12:29.601Z,94867.59
2022-09-10T17:14:57.870Z,94875.75
2022-09-10T17:17:26.374Z,94878.81
2022-09-10T17:19:56.586Z,94881.88
2022-09-10T17:22:24.969Z,94879.19
2022-09-10T17:24:54.035Z,94883.84
2022-09-10T17:27:25.387Z,94879.56
2022-09-10T17:29:57.088Z,94890.84
2022-09-10T17:32:25.469Z,94893.19
2022-09-10T17:34:53.735Z,94891.63
2022-09-10T17:37:24.512Z,94870.59
2022-09-10T17:39:53.861Z,94893.59
2022-09-10T17:42:22.278Z,94892.81
2022-09-10T17:44:50.657Z,94900.63
2022-09-10T17:47:18.948Z,94919.91
2022-09-10T17:49:47.620Z,94918.38
2022-09-10T17:52:15.927Z,94913.38
2022-09-10T17:54:45.838Z,94912.97
2022-09-10T17:57:16.826Z,94915.72
2022-09-10T17:59:45.200Z,94909.88
2022-09-10T18:02:15.602Z,94915.28
2022-09-10T18:04:44.212Z,94907.84
2022-09-10T18:07:13.103Z,94946.16
2022-09-10T18:09:41.440Z,94947.38
2022-09-10T18:12:11.265Z,94944.53
2022-09-10T18:14:39.678Z,94947.47
2022-09-10T18:17:07.910Z,94941.78
2022-09-10T18:19:36.716Z,94935.38
2022-09-10T18:22:05.536Z,94951.81
2022-09-10T18:24:34.020Z,94947.13
2022-09-10T18:27:04.785Z,94944.31
2022-09-10T18:29:35.170Z,94935.81
2022-09-10T18:32:03.988Z,94921.81
2022-09-10T18:34:32.611Z,94947.09
2022-09-10T18:37:02.674Z,94952.34
2022-09-10T18:39:32.617Z,94956.97
2022-09-10T18:42:02.909Z,94969.53
2022-09-10T18:44:33.473Z,94963.69
2022-09-10T18:47:03.294Z,94965.00
2022-09-10T18:49:31.608Z,94975.31
2022-09-10T18:51:59.879Z,94969.13
2022-09-10T18:54:29.525Z,94797.25
2022-09-10T18:56:58.327Z,94968.81
2022-09-10T18:59:27.247Z,94920.47
2022-09-10T19:01:57.032Z,94966.63
2022-09-10T19:04:28.592Z,94966.19
2022-09-10T19:06:58.148Z,94960.28
2022-09-10T19:09:27.831Z,94948.44
2022-09-10T19:11:58.521Z,94959.47
2022-09-10T19:14:29.483Z,94951.66
2022-09-10T19:16:59.456Z,94959.75
2022-09-10T19:19:30.700Z,94960.13
2022-09-10T19:22:01.297Z,94967.47
2022-09-10T19:24:51.000Z,94952.75
2022-09-10T19:27:18.094Z,94961.69
2022-09-10T19:29:47.429Z,94970.31
2022-09-10T19:32:17.239Z,94967.47
2022-09-10T19:34:47.282Z,94964.66
2022-09-10T19:37:15.832Z,94969.66
2022-09-10T19:39:44.619Z,94969.81
2022-09-10T19:42:13.231Z,94964.59
2022-09-10T19:44:41.632Z,94969.94
2022-09-10T19:47:09.969Z,94956.91
2022-09-10T19:49:39.246Z,94953.41
2022-09-10T19:52:11.205Z,94964.22
2022-09-10T19:54:39.892Z,94953.13
2022-09-10T19:57:08.254Z,94968.03
2022-09-10T19:59:36.569Z,94968.81
2022-09-10T20:02:05.127Z,94982.53
2022-09-10T20:04:34.284Z,94981.06
2022-09-10T20:07:02.783Z,94978.50
2022-09-10T20:09:33.984Z,94981.47
2022-09-10T20:12:05.968Z,94974.41
2022-09-10T20:14:34.285Z,94972.84
2022-09-10T20:17:03.172Z,94973.44
2022-09-10T20:19:31.859Z,94977.00
2022-09-10T20:22:00.106Z,94982.63
2022-09-10T20:24:28.903Z,94986.88
2022-09-10T20:26:58.640Z,94978.97
2022-09-10T20:29:28.569Z,94985.38
2022-09-10T20:31:56.894Z,94994.56
2022-09-10T20:34:25.608Z,94990.09
2022-09-10T20:36:54.041Z,94984.03
2022-09-10T20:39:25.339Z,94984.78
2022-09-10T20:41:54.036Z,94946.94
2022-09-10T20:44:23.714Z,94987.78
2022-09-10T20:46:52.299Z,94986.63
2022-09-10T20:49:21.539Z,94987.56
2022-09-10T20:51:49.835Z,94992.00
2022-09-10T20:54:19.801Z,94994.25
2022-09-10T20:56:48.192Z,95006.06
2022-09-10T20:59:18.244Z,94999.13
2022-09-10T21:01:50.833Z,95004.53
2022-09-10T21:04:19.980Z,95009.78
2022-09-10T21:06:48.307Z,95008.72
2022-09-10T21:09:16.662Z,95009.88
2022-09-10T21:11:44.919Z,95002.97
2022-09-10T21:14:13.758Z,95004.03
2022-09-10T21:16:43.306Z,95009.63
2022-09-10T21:19:15.845Z,94971.84
2022-09-10T21:21:46.113Z,94979.84
2022-09-10T21:24:16.311Z,95007.38
2022-09-10T21:26:45.024Z,94939.66
2022-09-10T21:29:15.016Z,95008.50
2022-09-10T21:31:43.988Z,95013.53
2022-09-10T21:34:14.359Z,95021.03
2022-09-10T21:36:43.883Z,95020.00
2022-09-10T21:39:14.807Z,95030.31
2022-09-10T21:41:45.302Z,95031.97
2022-09-10T21:44:14.839Z,95005.09
2022-09-10T21:46:43.559Z,95023.75
2022-09-10T21:49:13.392Z,95018.34
2022-09-10T21:51:42.415Z,95028.34
2022-09-10T21:54:15.317Z,95023.31
2022-09-10T21:56:43.627Z,95029.69
2022-09-10T21:59:13.141Z,95030.06
2022-09-10T22:01:43.655Z,95017.66
2022-09-10T22:04:18.857Z,95032.59
2022-09-10T22:06:49.977Z,95023.88
2022-09-10T22:09:18.367Z,95028.81
2022-09-10T22:11:50.214Z,95034.06
2022-09-10T22:14:21.051Z,95028.09
2022-09-10T22:16:49.645Z,95030.50
2022-09-10T22:19:20.809Z,95031.38
2022-09-10T22:21:49.136Z,95035.25
2022-09-10T22:24:18.583Z,95043.50
2022-09-10T22:26:47.766Z,95046.78
2022-09-10T22:29:18.986Z,95029.25
2022-09-10T22:31:47.671Z,95052.69
2022-09-10T22:34:18.741Z,95045.34
2022-09-10T22:36:48.531Z,95037.28
2022-09-10T22:39:18.504Z,95034.41
2022-09-10T22:41:47.379Z,95021.94
2022-09-10T22:44:17.800Z,94965.56
2022-09-10T22:46:46.262Z,95029.63
2022-09-10T22:49:15.596Z,95042.91
2022-09-10T22:51:45.938Z,95043.22
2022-09-10T22:54:14.316Z,95050.00
2022-09-10T22:56:42.695Z,95033.00
2022-09-10T22:59:16.582Z,95043.38
2022-09-10T23:01:47.704Z,95044.28
2022-09-10T23:04:16.233Z,95047.16
2022-09-10T23:06:46.076Z,95044.72
2022-09-10T23:09:16.187Z,95035.03
2022-09-10T23:11:45.893Z,95043.66
2022-09-10T23:14:16.807Z,95041.91
2022-09-10T23:16:47.782Z,94974.13
2022-09-10T23:19:18.125Z,95042.53
2022-09-10T23:21:50.475Z,95048.88
2022-09-10T23:24:21.069Z,95050.41
2022-09-10T23:26:49.590Z,95047.13
2022-09-10T23:29:18.560Z,95053.47
2022-09-10T23:31:47.731Z,95048.91
2022-09-10T23:34:17.707Z,95057.19
2022-09-10T23:36:48.986Z,95027.22
2022-09-10T23:39:19.898Z,95053.06
2022-09-10T23:41:48.856Z,95049.47
2022-09-10T23:44:17.619Z,95046.88
2022-09-10T23:46:46.148Z,95042.84
2022-09-10T23:49:14.619Z,95047.25
2022-09-10T23:51:43.142Z,95052.16
2022-09-10T23:54:13.178Z,95051.41
2022-09-10T23:56:41.672Z,95043.03
2022-09-10T23:59:10.723Z,95049.25
